sensor_id;sensor_type;location;lat;lon;timestamp;temperature;humidity
70947;DHT22;58605;48.700;8.760;2023-05-10T00:01:54;14.30;99.90
70947;DHT22;58605;48.700;8.760;2023-05-10T00:04:20;14.20;99.90
70947;DHT22;58605;48.700;8.760;2023-05-10T00:06:47;14.10;99.90
70947;DHT22;58605;48.700;8.760;2023-05-10T00:09:14;14.10;99.90
70947;DHT22;58605;48.700;8.760;2023-05-10T00:11:41;14.10;99.90
70947;DHT22;58605;48.700;8.760;2023-05-10T00:14:07;14.20;99.90
70947;DHT22;58605;48.700;8.760;2023-05-10T00:16:33;14.30;99.90
70947;DHT22;58605;48.700;8.760;2023-05-10T00:18:59;14.30;99.90
70947;DHT22;58605;48.700;8.760;2023-05-10T00:21:26;14.30;99.90
70947;DHT22;58605;48.700;8.760;2023-05-10T00:23:54;14.30;99.90
70947;DHT22;58605;48.700;8.760;2023-05-10T00:26:21;14.20;99.90
70947;DHT22;58605;48.700;8.760;2023-05-10T00:28:48;14.30;99.90
70947;DHT22;58605;48.700;8.760;2023-05-10T00:31:14;14.20;99.90
70947;DHT22;58605;48.700;8.760;2023-05-10T00:33:49;14.10;99.90
70947;DHT22;58605;48.700;8.760;2023-05-10T00:36:15;14.00;99.90
70947;DHT22;58605;48.700;8.760;2023-05-10T00:38:41;14.10;99.90
70947;DHT22;58605;48.700;8.760;2023-05-10T00:41:07;14.00;99.90
70947;DHT22;58605;48.700;8.760;2023-05-10T00:43:35;13.90;99.90
70947;DHT22;58605;48.700;8.760;2023-05-10T00:46:01;13.80;99.90
70947;DHT22;58605;48.700;8.760;2023-05-10T00:48:28;13.80;99.90
70947;DHT22;58605;48.700;8.760;2023-05-10T00:50:55;13.80;99.90
70947;DHT22;58605;48.700;8.760;2023-05-10T00:53:21;13.80;99.90
70947;DHT22;58605;48.700;8.760;2023-05-10T00:55:48;13.90;99.90
70947;DHT22;58605;48.700;8.760;2023-05-10T00:58:14;13.80;99.90
70947;DHT22;58605;48.700;8.760;2023-05-10T01:00:43;13.80;99.90
70947;DHT22;58605;48.700;8.760;2023-05-10T01:20:02;13.50;99.90
70947;DHT22;58605;48.700;8.760;2023-05-10T01:26:11;13.60;99.90
70947;DHT22;58605;48.700;8.760;2023-05-10T01:28:58;13.60;99.90
70947;DHT22;58605;48.700;8.760;2023-05-10T01:34:41;13.50;99.90
70947;DHT22;58605;48.700;8.760;2023-05-10T01:37:13;13.60;99.90
70947;DHT22;58605;48.700;8.760;2023-05-10T01:39:43;13.70;99.90
70947;DHT22;58605;48.700;8.760;2023-05-10T01:42:14;13.60;99.90
70947;DHT22;58605;48.700;8.760;2023-05-10T01:44:46;13.50;99.90
70947;DHT22;58605;48.700;8.760;2023-05-10T01:47:19;13.60;99.90
70947;DHT22;58605;48.700;8.760;2023-05-10T01:49:49;13.70;99.90
70947;DHT22;58605;48.700;8.760;2023-05-10T01:52:18;13.80;99.90
70947;DHT22;58605;48.700;8.760;2023-05-10T01:54:50;13.80;99.90
70947;DHT22;58605;48.700;8.760;2023-05-10T01:57:19;13.70;99.90
70947;DHT22;58605;48.700;8.760;2023-05-10T01:59:50;13.50;99.90
70947;DHT22;58605;48.700;8.760;2023-05-10T02:02:17;13.40;99.90
70947;DHT22;58605;48.700;8.760;2023-05-10T02:04:46;13.20;99.90
70947;DHT22;58605;48.700;8.760;2023-05-10T02:07:14;13.10;99.90
70947;DHT22;58605;48.700;8.760;2023-05-10T02:09:42;13.10;99.90
70947;DHT22;58605;48.700;8.760;2023-05-10T02:12:09;13.20;99.90
70947;DHT22;58605;48.700;8.760;2023-05-10T02:14:39;13.20;99.90
70947;DHT22;58605;48.700;8.760;2023-05-10T02:17:14;13.40;99.90
70947;DHT22;58605;48.700;8.760;2023-05-10T02:19:43;13.50;99.90
70947;DHT22;58605;48.700;8.760;2023-05-10T02:22:25;13.60;99.90
70947;DHT22;58605;48.700;8.760;2023-05-10T02:24:53;13.70;99.90
70947;DHT22;58605;48.700;8.760;2023-05-10T02:27:20;13.80;99.90
70947;DHT22;58605;48.700;8.760;2023-05-10T02:29:46;13.70;99.90
70947;DHT22;58605;48.700;8.760;2023-05-10T02:32:14;13.90;99.90
70947;DHT22;58605;48.700;8.760;2023-05-10T02:34:41;14.00;99.90
70947;DHT22;58605;48.700;8.760;2023-05-10T02:37:07;14.10;99.90
70947;DHT22;58605;48.700;8.760;2023-05-10T02:39:36;14.00;99.90
70947;DHT22;58605;48.700;8.760;2023-05-10T02:42:02;14.00;99.90
70947;DHT22;58605;48.700;8.760;2023-05-10T02:44:29;13.90;99.90
70947;DHT22;58605;48.700;8.760;2023-05-10T02:46:57;13.80;99.90
70947;DHT22;58605;48.700;8.760;2023-05-10T02:49:24;13.90;99.90
70947;DHT22;58605;48.700;8.760;2023-05-10T02:51:53;14.00;99.90
70947;DHT22;58605;48.700;8.760;2023-05-10T02:54:25;13.90;99.90
70947;DHT22;58605;48.700;8.760;2023-05-10T02:56:57;13.90;99.90
70947;DHT22;58605;48.700;8.760;2023-05-10T02:59:24;13.80;99.90
70947;DHT22;58605;48.700;8.760;2023-05-10T03:01:50;14.00;99.90
70947;DHT22;58605;48.700;8.760;2023-05-10T03:04:16;14.00;99.90
70947;DHT22;58605;48.700;8.760;2023-05-10T03:06:42;14.00;99.90
70947;DHT22;58605;48.700;8.760;2023-05-10T03:09:09;14.10;99.90
70947;DHT22;58605;48.700;8.760;2023-05-10T03:11:47;14.20;99.90
70947;DHT22;58605;48.700;8.760;2023-05-10T03:14:24;14.20;99.90
70947;DHT22;58605;48.700;8.760;2023-05-10T03:16:59;14.10;99.90
70947;DHT22;58605;48.700;8.760;2023-05-10T03:19:30;14.30;99.90
70947;DHT22;58605;48.700;8.760;2023-05-10T03:22:00;14.40;99.90
70947;DHT22;58605;48.700;8.760;2023-05-10T03:24:30;14.30;99.90
70947;DHT22;58605;48.700;8.760;2023-05-10T03:26:59;14.20;99.90
70947;DHT22;58605;48.700;8.760;2023-05-10T03:29:30;13.90;99.90
70947;DHT22;58605;48.700;8.760;2023-05-10T03:31:58;13.80;99.90
70947;DHT22;58605;48.700;8.760;2023-05-10T03:34:24;13.80;99.90
70947;DHT22;58605;48.700;8.760;2023-05-10T03:36:51;13.90;99.90
70947;DHT22;58605;48.700;8.760;2023-05-10T03:39:16;14.00;99.90
70947;DHT22;58605;48.700;8.760;2023-05-10T03:41:43;14.10;99.90
70947;DHT22;58605;48.700;8.760;2023-05-10T03:44:09;14.20;99.90
70947;DHT22;58605;48.700;8.760;2023-05-10T03:46:36;14.40;99.90
70947;DHT22;58605;48.700;8.760;2023-05-10T03:49:02;14.50;99.90
70947;DHT22;58605;48.700;8.760;2023-05-10T03:51:28;14.60;99.90
70947;DHT22;58605;48.700;8.760;2023-05-10T03:53:54;14.70;99.90
70947;DHT22;58605;48.700;8.760;2023-05-10T03:56:21;14.80;99.90
70947;DHT22;58605;48.700;8.760;2023-05-10T03:58:47;14.80;99.90
70947;DHT22;58605;48.700;8.760;2023-05-10T04:01:13;14.90;99.90
70947;DHT22;58605;48.700;8.760;2023-05-10T04:03:40;15.00;99.90
70947;DHT22;58605;48.700;8.760;2023-05-10T04:06:06;15.00;99.90
70947;DHT22;58605;48.700;8.760;2023-05-10T04:08:34;15.00;99.90
70947;DHT22;58605;48.700;8.760;2023-05-10T04:11:05;14.90;99.90
70947;DHT22;58605;48.700;8.760;2023-05-10T04:13:32;14.80;99.90
70947;DHT22;58605;48.700;8.760;2023-05-10T04:15:58;14.80;99.90
70947;DHT22;58605;48.700;8.760;2023-05-10T04:18:24;14.80;99.90
70947;DHT22;58605;48.700;8.760;2023-05-10T04:20:52;14.90;99.90
70947;DHT22;58605;48.700;8.760;2023-05-10T04:23:18;15.00;99.90
70947;DHT22;58605;48.700;8.760;2023-05-10T04:25:44;15.00;99.90
70947;DHT22;58605;48.700;8.760;2023-05-10T04:28:10;15.00;99.90
70947;DHT22;58605;48.700;8.760;2023-05-10T04:30:36;14.90;99.90
70947;DHT22;58605;48.700;8.760;2023-05-10T04:33:02;14.80;99.90
70947;DHT22;58605;48.700;8.760;2023-05-10T04:35:29;14.60;99.90
70947;DHT22;58605;48.700;8.760;2023-05-10T04:37:56;14.60;99.90
70947;DHT22;58605;48.700;8.760;2023-05-10T04:40:24;14.50;99.90
70947;DHT22;58605;48.700;8.760;2023-05-10T04:42:50;14.10;99.90
70947;DHT22;58605;48.700;8.760;2023-05-10T04:45:16;13.80;99.90
70947;DHT22;58605;48.700;8.760;2023-05-10T04:47:42;13.60;99.90
70947;DHT22;58605;48.700;8.760;2023-05-10T04:50:09;13.50;99.90
70947;DHT22;58605;48.700;8.760;2023-05-10T04:52:35;13.50;99.90
70947;DHT22;58605;48.700;8.760;2023-05-10T04:55:04;13.50;99.90
70947;DHT22;58605;48.700;8.760;2023-05-10T04:57:30;13.60;99.90
70947;DHT22;58605;48.700;8.760;2023-05-10T04:59:56;13.70;99.90
70947;DHT22;58605;48.700;8.760;2023-05-10T05:02:24;13.70;99.90
70947;DHT22;58605;48.700;8.760;2023-05-10T05:04:50;13.90;99.90
70947;DHT22;58605;48.700;8.760;2023-05-10T05:07:22;13.90;99.90
70947;DHT22;58605;48.700;8.760;2023-05-10T05:09:48;14.00;99.90
70947;DHT22;58605;48.700;8.760;2023-05-10T05:12:16;14.20;99.90
70947;DHT22;58605;48.700;8.760;2023-05-10T05:14:42;14.30;99.90
70947;DHT22;58605;48.700;8.760;2023-05-10T05:17:08;14.40;99.90
70947;DHT22;58605;48.700;8.760;2023-05-10T05:19:34;14.40;99.90
70947;DHT22;58605;48.700;8.760;2023-05-10T05:22:01;14.40;99.90
70947;DHT22;58605;48.700;8.760;2023-05-10T05:24:27;14.30;99.90
70947;DHT22;58605;48.700;8.760;2023-05-10T05:26:53;14.10;99.90
70947;DHT22;58605;48.700;8.760;2023-05-10T05:29:20;14.10;99.90
70947;DHT22;58605;48.700;8.760;2023-05-10T05:31:46;14.00;99.90
70947;DHT22;58605;48.700;8.760;2023-05-10T05:34:12;13.80;99.90
70947;DHT22;58605;48.700;8.760;2023-05-10T05:36:38;13.90;99.90
70947;DHT22;58605;48.700;8.760;2023-05-10T05:39:05;14.00;99.90
70947;DHT22;58605;48.700;8.760;2023-05-10T05:41:31;14.00;99.90
70947;DHT22;58605;48.700;8.760;2023-05-10T05:43:57;14.00;99.90
70947;DHT22;58605;48.700;8.760;2023-05-10T05:46:24;13.90;99.90
70947;DHT22;58605;48.700;8.760;2023-05-10T05:48:50;13.90;99.90
70947;DHT22;58605;48.700;8.760;2023-05-10T05:51:16;14.00;99.90
70947;DHT22;58605;48.700;8.760;2023-05-10T05:53:49;14.10;99.90
70947;DHT22;58605;48.700;8.760;2023-05-10T05:56:15;14.20;99.90
70947;DHT22;58605;48.700;8.760;2023-05-10T05:58:41;14.20;99.90
70947;DHT22;58605;48.700;8.760;2023-05-10T06:01:07;14.20;99.90
70947;DHT22;58605;48.700;8.760;2023-05-10T06:03:34;14.30;99.90
70947;DHT22;58605;48.700;8.760;2023-05-10T06:06:01;14.30;99.90
70947;DHT22;58605;48.700;8.760;2023-05-10T06:08:27;14.40;99.90
70947;DHT22;58605;48.700;8.760;2023-05-10T06:10:53;14.40;99.90
70947;DHT22;58605;48.700;8.760;2023-05-10T06:13:19;14.40;99.90
70947;DHT22;58605;48.700;8.760;2023-05-10T06:15:45;14.30;99.90
70947;DHT22;58605;48.700;8.760;2023-05-10T06:18:12;14.30;99.90
70947;DHT22;58605;48.700;8.760;2023-05-10T06:20:41;14.40;99.90
70947;DHT22;58605;48.700;8.760;2023-05-10T06:23:07;14.50;99.90
70947;DHT22;58605;48.700;8.760;2023-05-10T06:25:33;14.70;99.90
70947;DHT22;58605;48.700;8.760;2023-05-10T06:27:59;14.80;99.90
70947;DHT22;58605;48.700;8.760;2023-05-10T06:30:26;14.90;99.90
70947;DHT22;58605;48.700;8.760;2023-05-10T06:32:54;15.00;99.90
70947;DHT22;58605;48.700;8.760;2023-05-10T06:35:20;15.10;99.90
70947;DHT22;58605;48.700;8.760;2023-05-10T06:37:48;15.10;99.90
70947;DHT22;58605;48.700;8.760;2023-05-10T06:40:14;15.20;99.90
70947;DHT22;58605;48.700;8.760;2023-05-10T06:42:43;15.30;99.90
70947;DHT22;58605;48.700;8.760;2023-05-10T06:45:10;15.30;99.90
70947;DHT22;58605;48.700;8.760;2023-05-10T06:47:37;15.40;99.90
70947;DHT22;58605;48.700;8.760;2023-05-10T06:50:03;15.30;99.90
70947;DHT22;58605;48.700;8.760;2023-05-10T06:52:29;15.30;99.90
70947;DHT22;58605;48.700;8.760;2023-05-10T06:54:56;15.40;99.90
70947;DHT22;58605;48.700;8.760;2023-05-10T06:57:23;15.20;99.90
70947;DHT22;58605;48.700;8.760;2023-05-10T06:59:50;15.20;99.90
70947;DHT22;58605;48.700;8.760;2023-05-10T07:02:17;15.10;99.90
70947;DHT22;58605;48.700;8.760;2023-05-10T07:04:43;14.90;99.90
70947;DHT22;58605;48.700;8.760;2023-05-10T07:07:18;14.90;99.90
70947;DHT22;58605;48.700;8.760;2023-05-10T07:09:44;14.90;99.90
70947;DHT22;58605;48.700;8.760;2023-05-10T07:12:12;14.90;99.90
70947;DHT22;58605;48.700;8.760;2023-05-10T07:14:38;14.80;99.90
70947;DHT22;58605;48.700;8.760;2023-05-10T07:17:04;14.80;99.90
70947;DHT22;58605;48.700;8.760;2023-05-10T07:19:30;14.80;99.90
70947;DHT22;58605;48.700;8.760;2023-05-10T07:21:58;14.80;99.90
70947;DHT22;58605;48.700;8.760;2023-05-10T07:24:24;14.80;99.90
70947;DHT22;58605;48.700;8.760;2023-05-10T07:26:51;14.80;99.90
70947;DHT22;58605;48.700;8.760;2023-05-10T07:29:18;14.80;99.90
70947;DHT22;58605;48.700;8.760;2023-05-10T07:31:44;14.80;99.90
70947;DHT22;58605;48.700;8.760;2023-05-10T07:34:10;14.90;99.90
70947;DHT22;58605;48.700;8.760;2023-05-10T07:36:37;14.90;99.90
70947;DHT22;58605;48.700;8.760;2023-05-10T07:39:03;15.00;99.90
70947;DHT22;58605;48.700;8.760;2023-05-10T07:41:29;15.00;99.90
70947;DHT22;58605;48.700;8.760;2023-05-10T07:43:55;15.00;99.90
70947;DHT22;58605;48.700;8.760;2023-05-10T07:46:23;15.00;99.90
70947;DHT22;58605;48.700;8.760;2023-05-10T07:48:49;15.00;99.90
70947;DHT22;58605;48.700;8.760;2023-05-10T07:51:15;14.90;99.90
70947;DHT22;58605;48.700;8.760;2023-05-10T07:53:41;14.90;99.90
70947;DHT22;58605;48.700;8.760;2023-05-10T07:56:21;14.90;99.90
70947;DHT22;58605;48.700;8.760;2023-05-10T07:58:47;14.90;99.90
70947;DHT22;58605;48.700;8.760;2023-05-10T08:01:20;14.80;99.90
70947;DHT22;58605;48.700;8.760;2023-05-10T08:03:47;14.80;99.90
70947;DHT22;58605;48.700;8.760;2023-05-10T08:06:14;14.70;99.90
70947;DHT22;58605;48.700;8.760;2023-05-10T08:08:41;14.70;99.90
70947;DHT22;58605;48.700;8.760;2023-05-10T08:11:07;14.70;99.90
70947;DHT22;58605;48.700;8.760;2023-05-10T08:13:33;14.70;99.90
70947;DHT22;58605;48.700;8.760;2023-05-10T08:15:59;14.70;99.90
70947;DHT22;58605;48.700;8.760;2023-05-10T08:18:26;14.60;99.90
70947;DHT22;58605;48.700;8.760;2023-05-10T08:20:54;14.80;99.90
70947;DHT22;58605;48.700;8.760;2023-05-10T08:23:20;14.90;99.90
70947;DHT22;58605;48.700;8.760;2023-05-10T08:25:46;14.90;99.90
70947;DHT22;58605;48.700;8.760;2023-05-10T08:28:12;15.10;99.90
70947;DHT22;58605;48.700;8.760;2023-05-10T08:30:38;15.10;97.70
70947;DHT22;58605;48.700;8.760;2023-05-10T08:33:04;15.10;97.10
70947;DHT22;58605;48.700;8.760;2023-05-10T08:35:30;15.20;97.30
70947;DHT22;58605;48.700;8.760;2023-05-10T08:37:58;15.40;97.70
70947;DHT22;58605;48.700;8.760;2023-05-10T08:40:26;15.50;96.80
70947;DHT22;58605;48.700;8.760;2023-05-10T08:42:57;15.60;96.00
70947;DHT22;58605;48.700;8.760;2023-05-10T08:45:24;15.70;95.60
70947;DHT22;58605;48.700;8.760;2023-05-10T08:47:53;15.40;95.80
70947;DHT22;58605;48.700;8.760;2023-05-10T08:50:20;15.20;95.40
70947;DHT22;58605;48.700;8.760;2023-05-10T08:52:48;15.10;94.50
70947;DHT22;58605;48.700;8.760;2023-05-10T08:55:18;15.00;95.50
70947;DHT22;58605;48.700;8.760;2023-05-10T08:57:44;15.10;95.10
70947;DHT22;58605;48.700;8.760;2023-05-10T09:00:12;15.00;95.60
70947;DHT22;58605;48.700;8.760;2023-05-10T09:02:39;15.10;94.40
70947;DHT22;58605;48.700;8.760;2023-05-10T09:05:07;15.20;95.00
70947;DHT22;58605;48.700;8.760;2023-05-10T09:07:33;15.20;95.10
70947;DHT22;58605;48.700;8.760;2023-05-10T09:09:59;15.20;95.20
70947;DHT22;58605;48.700;8.760;2023-05-10T09:12:27;15.10;96.50
70947;DHT22;58605;48.700;8.760;2023-05-10T09:14:54;15.00;97.80
70947;DHT22;58605;48.700;8.760;2023-05-10T09:17:22;15.00;96.90
70947;DHT22;58605;48.700;8.760;2023-05-10T09:19:49;15.00;95.20
70947;DHT22;58605;48.700;8.760;2023-05-10T09:22:15;15.10;95.50
70947;DHT22;58605;48.700;8.760;2023-05-10T09:24:42;15.10;94.60
70947;DHT22;58605;48.700;8.760;2023-05-10T09:27:10;15.20;94.60
70947;DHT22;58605;48.700;8.760;2023-05-10T09:29:42;15.30;94.50
70947;DHT22;58605;48.700;8.760;2023-05-10T09:32:08;15.30;94.80
70947;DHT22;58605;48.700;8.760;2023-05-10T09:34:34;15.30;94.00
70947;DHT22;58605;48.700;8.760;2023-05-10T09:37:05;15.20;94.00
70947;DHT22;58605;48.700;8.760;2023-05-10T09:39:32;15.30;93.40
70947;DHT22;58605;48.700;8.760;2023-05-10T09:41:59;15.30;94.10
70947;DHT22;58605;48.700;8.760;2023-05-10T09:44:26;15.40;94.30
70947;DHT22;58605;48.700;8.760;2023-05-10T09:46:54;15.40;94.50
70947;DHT22;58605;48.700;8.760;2023-05-10T09:49:21;15.40;93.70
70947;DHT22;58605;48.700;8.760;2023-05-10T09:51:47;15.30;95.80
70947;DHT22;58605;48.700;8.760;2023-05-10T09:54:14;15.30;96.00
70947;DHT22;58605;48.700;8.760;2023-05-10T09:56:41;15.20;97.40
70947;DHT22;58605;48.700;8.760;2023-05-10T09:59:09;15.10;97.20
70947;DHT22;58605;48.700;8.760;2023-05-10T10:01:36;15.30;94.90
70947;DHT22;58605;48.700;8.760;2023-05-10T10:04:05;15.40;95.10
70947;DHT22;58605;48.700;8.760;2023-05-10T10:06:36;15.60;90.20
70947;DHT22;58605;48.700;8.760;2023-05-10T10:09:02;15.50;92.20
70947;DHT22;58605;48.700;8.760;2023-05-10T10:11:28;15.50;92.10
70947;DHT22;58605;48.700;8.760;2023-05-10T10:13:55;15.40;92.60
70947;DHT22;58605;48.700;8.760;2023-05-10T10:16:21;15.40;92.60
70947;DHT22;58605;48.700;8.760;2023-05-10T10:18:47;15.10;91.90
70947;DHT22;58605;48.700;8.760;2023-05-10T10:21:15;15.00;91.00
70947;DHT22;58605;48.700;8.760;2023-05-10T10:23:41;14.80;90.70
70947;DHT22;58605;48.700;8.760;2023-05-10T10:26:07;14.60;91.40
70947;DHT22;58605;48.700;8.760;2023-05-10T10:28:39;14.50;91.10
70947;DHT22;58605;48.700;8.760;2023-05-10T10:31:15;14.40;91.30
70947;DHT22;58605;48.700;8.760;2023-05-10T10:33:59;14.40;91.60
70947;DHT22;58605;48.700;8.760;2023-05-10T10:36:27;14.40;91.20
70947;DHT22;58605;48.700;8.760;2023-05-10T10:38:57;14.50;90.80
70947;DHT22;58605;48.700;8.760;2023-05-10T10:41:32;14.60;91.30
70947;DHT22;58605;48.700;8.760;2023-05-10T10:44:23;14.70;91.40
70947;DHT22;58605;48.700;8.760;2023-05-10T10:47:03;14.60;88.10
70947;DHT22;58605;48.700;8.760;2023-05-10T10:49:31;14.60;90.30
70947;DHT22;58605;48.700;8.760;2023-05-10T10:52:24;14.60;90.20
70947;DHT22;58605;48.700;8.760;2023-05-10T10:54:59;14.70;88.00
70947;DHT22;58605;48.700;8.760;2023-05-10T10:57:26;14.60;90.50
70947;DHT22;58605;48.700;8.760;2023-05-10T11:02:43;14.70;90.20
70947;DHT22;58605;48.700;8.760;2023-05-10T11:05:35;14.80;89.00
70947;DHT22;58605;48.700;8.760;2023-05-10T11:08:12;14.80;89.20
70947;DHT22;58605;48.700;8.760;2023-05-10T11:10:39;14.80;89.30
70947;DHT22;58605;48.700;8.760;2023-05-10T11:13:07;14.70;88.60
70947;DHT22;58605;48.700;8.760;2023-05-10T11:15:35;14.80;89.00
70947;DHT22;58605;48.700;8.760;2023-05-10T11:18:17;14.90;86.90
70947;DHT22;58605;48.700;8.760;2023-05-10T11:20:44;14.90;86.70
70947;DHT22;58605;48.700;8.760;2023-05-10T11:23:14;14.80;85.40
70947;DHT22;58605;48.700;8.760;2023-05-10T11:25:42;14.80;86.80
70947;DHT22;58605;48.700;8.760;2023-05-10T11:28:09;15.00;88.80
70947;DHT22;58605;48.700;8.760;2023-05-10T11:30:36;15.20;87.60
70947;DHT22;58605;48.700;8.760;2023-05-10T11:33:02;15.10;87.60
70947;DHT22;58605;48.700;8.760;2023-05-10T11:35:28;15.20;85.20
70947;DHT22;58605;48.700;8.760;2023-05-10T11:37:54;15.30;88.70
70947;DHT22;58605;48.700;8.760;2023-05-10T11:40:23;15.40;89.00
70947;DHT22;58605;48.700;8.760;2023-05-10T11:42:52;15.40;87.80
70947;DHT22;58605;48.700;8.760;2023-05-10T11:45:28;15.40;88.00
70947;DHT22;58605;48.700;8.760;2023-05-10T11:47:57;15.50;88.60
70947;DHT22;58605;48.700;8.760;2023-05-10T11:50:24;15.50;88.60
70947;DHT22;58605;48.700;8.760;2023-05-10T11:52:53;15.60;87.20
70947;DHT22;58605;48.700;8.760;2023-05-10T11:55:21;15.20;91.10
70947;DHT22;58605;48.700;8.760;2023-05-10T11:57:51;15.20;89.70
70947;DHT22;58605;48.700;8.760;2023-05-10T12:00:18;15.10;90.20
70947;DHT22;58605;48.700;8.760;2023-05-10T12:02:44;15.00;90.90
70947;DHT22;58605;48.700;8.760;2023-05-10T12:05:10;15.00;91.20
70947;DHT22;58605;48.700;8.760;2023-05-10T12:07:36;15.20;90.30
70947;DHT22;58605;48.700;8.760;2023-05-10T12:10:07;15.30;88.00
70947;DHT22;58605;48.700;8.760;2023-05-10T12:12:42;15.30;87.20
70947;DHT22;58605;48.700;8.760;2023-05-10T12:15:18;15.20;87.20
70947;DHT22;58605;48.700;8.760;2023-05-10T12:17:45;15.20;87.80
70947;DHT22;58605;48.700;8.760;2023-05-10T12:20:19;15.40;88.60
70947;DHT22;58605;48.700;8.760;2023-05-10T12:22:48;15.30;86.70
70947;DHT22;58605;48.700;8.760;2023-05-10T12:25:15;15.30;87.10
70947;DHT22;58605;48.700;8.760;2023-05-10T12:27:48;15.40;84.20
70947;DHT22;58605;48.700;8.760;2023-05-10T12:30:19;15.50;86.80
70947;DHT22;58605;48.700;8.760;2023-05-10T12:32:45;15.50;84.80
70947;DHT22;58605;48.700;8.760;2023-05-10T12:35:11;15.50;83.60
70947;DHT22;58605;48.700;8.760;2023-05-10T12:37:37;15.50;84.50
70947;DHT22;58605;48.700;8.760;2023-05-10T12:40:08;15.40;82.80
70947;DHT22;58605;48.700;8.760;2023-05-10T12:42:34;15.20;85.40
70947;DHT22;58605;48.700;8.760;2023-05-10T12:45:03;15.10;86.80
70947;DHT22;58605;48.700;8.760;2023-05-10T12:47:29;15.10;85.80
70947;DHT22;58605;48.700;8.760;2023-05-10T12:49:56;15.30;83.80
70947;DHT22;58605;48.700;8.760;2023-05-10T12:52:22;15.20;84.50
70947;DHT22;58605;48.700;8.760;2023-05-10T12:54:48;15.30;84.20
70947;DHT22;58605;48.700;8.760;2023-05-10T12:57:14;15.30;85.30
70947;DHT22;58605;48.700;8.760;2023-05-10T12:59:40;15.50;84.70
70947;DHT22;58605;48.700;8.760;2023-05-10T13:02:08;15.60;83.60
70947;DHT22;58605;48.700;8.760;2023-05-10T13:04:34;15.80;80.60
70947;DHT22;58605;48.700;8.760;2023-05-10T13:07:03;15.80;82.10
70947;DHT22;58605;48.700;8.760;2023-05-10T13:09:29;15.80;82.50
70947;DHT22;58605;48.700;8.760;2023-05-10T13:11:55;15.90;83.60
70947;DHT22;58605;48.700;8.760;2023-05-10T13:14:21;15.60;88.20
70947;DHT22;58605;48.700;8.760;2023-05-10T13:16:47;15.50;87.30
70947;DHT22;58605;48.700;8.760;2023-05-10T13:19:16;15.40;88.20
70947;DHT22;58605;48.700;8.760;2023-05-10T13:21:42;15.20;91.10
70947;DHT22;58605;48.700;8.760;2023-05-10T13:24:10;15.20;90.90
70947;DHT22;58605;48.700;8.760;2023-05-10T13:26:36;15.20;90.20
70947;DHT22;58605;48.700;8.760;2023-05-10T13:29:02;15.10;90.60
70947;DHT22;58605;48.700;8.760;2023-05-10T13:31:29;15.20;90.40
70947;DHT22;58605;48.700;8.760;2023-05-10T13:33:55;15.10;87.40
70947;DHT22;58605;48.700;8.760;2023-05-10T13:36:23;15.10;89.30
70947;DHT22;58605;48.700;8.760;2023-05-10T13:38:49;15.00;91.40
70947;DHT22;58605;48.700;8.760;2023-05-10T13:41:15;14.90;89.00
70947;DHT22;58605;48.700;8.760;2023-05-10T13:43:41;15.10;85.50
70947;DHT22;58605;48.700;8.760;2023-05-10T13:46:07;15.10;87.90
70947;DHT22;58605;48.700;8.760;2023-05-10T13:48:33;15.00;89.10
70947;DHT22;58605;48.700;8.760;2023-05-10T13:50:59;15.00;91.50
70947;DHT22;58605;48.700;8.760;2023-05-10T13:53:26;15.00;92.50
70947;DHT22;58605;48.700;8.760;2023-05-10T13:55:52;15.00;91.70
70947;DHT22;58605;48.700;8.760;2023-05-10T13:58:18;15.20;87.60
70947;DHT22;58605;48.700;8.760;2023-05-10T14:00:44;15.30;85.70
70947;DHT22;58605;48.700;8.760;2023-05-10T14:03:10;15.30;86.60
70947;DHT22;58605;48.700;8.760;2023-05-10T14:05:37;15.30;85.40
70947;DHT22;58605;48.700;8.760;2023-05-10T14:08:03;15.20;85.00
70947;DHT22;58605;48.700;8.760;2023-05-10T14:10:31;15.10;86.50
70947;DHT22;58605;48.700;8.760;2023-05-10T14:13:02;15.00;86.10
70947;DHT22;58605;48.700;8.760;2023-05-10T14:15:28;15.00;88.20
70947;DHT22;58605;48.700;8.760;2023-05-10T14:17:54;15.10;85.10
70947;DHT22;58605;48.700;8.760;2023-05-10T14:20:21;15.20;85.30
70947;DHT22;58605;48.700;8.760;2023-05-10T14:22:47;15.20;85.10
70947;DHT22;58605;48.700;8.760;2023-05-10T14:25:13;15.30;85.50
70947;DHT22;58605;48.700;8.760;2023-05-10T14:27:41;15.30;83.60
70947;DHT22;58605;48.700;8.760;2023-05-10T14:30:08;15.40;83.30
70947;DHT22;58605;48.700;8.760;2023-05-10T14:32:34;15.70;81.90
70947;DHT22;58605;48.700;8.760;2023-05-10T14:35:02;15.80;81.50
70947;DHT22;58605;48.700;8.760;2023-05-10T14:37:28;16.00;79.70
70947;DHT22;58605;48.700;8.760;2023-05-10T14:39:54;16.20;75.80
70947;DHT22;58605;48.700;8.760;2023-05-10T14:42:20;16.20;78.30
70947;DHT22;58605;48.700;8.760;2023-05-10T14:44:48;16.20;79.70
70947;DHT22;58605;48.700;8.760;2023-05-10T14:47:14;16.30;78.90
70947;DHT22;58605;48.700;8.760;2023-05-10T14:49:40;16.40;79.30
70947;DHT22;58605;48.700;8.760;2023-05-10T14:52:06;16.30;80.60
70947;DHT22;58605;48.700;8.760;2023-05-10T14:54:33;16.40;77.60
70947;DHT22;58605;48.700;8.760;2023-05-10T14:56:59;16.60;77.80
70947;DHT22;58605;48.700;8.760;2023-05-10T14:59:26;16.60;76.90
70947;DHT22;58605;48.700;8.760;2023-05-10T15:01:53;16.70;74.20
70947;DHT22;58605;48.700;8.760;2023-05-10T15:04:19;16.70;77.80
70947;DHT22;58605;48.700;8.760;2023-05-10T15:06:45;16.60;78.10
70947;DHT22;58605;48.700;8.760;2023-05-10T15:09:11;16.60;78.30
70947;DHT22;58605;48.700;8.760;2023-05-10T15:11:37;16.60;78.40
70947;DHT22;58605;48.700;8.760;2023-05-10T15:14:03;16.70;75.10
70947;DHT22;58605;48.700;8.760;2023-05-10T15:16:29;16.80;74.20
70947;DHT22;58605;48.700;8.760;2023-05-10T15:18:56;16.90;73.40
70947;DHT22;58605;48.700;8.760;2023-05-10T15:21:22;16.80;73.70
70947;DHT22;58605;48.700;8.760;2023-05-10T15:23:48;16.90;72.00
70947;DHT22;58605;48.700;8.760;2023-05-10T15:26:14;16.80;75.20
70947;DHT22;58605;48.700;8.760;2023-05-10T15:28:40;16.90;74.30
70947;DHT22;58605;48.700;8.760;2023-05-10T15:31:09;16.70;76.60
70947;DHT22;58605;48.700;8.760;2023-05-10T15:33:37;16.70;76.10
70947;DHT22;58605;48.700;8.760;2023-05-10T15:36:05;16.60;77.20
70947;DHT22;58605;48.700;8.760;2023-05-10T15:38:32;16.60;78.70
70947;DHT22;58605;48.700;8.760;2023-05-10T15:40:58;16.50;77.60
70947;DHT22;58605;48.700;8.760;2023-05-10T15:43:24;16.60;75.80
70947;DHT22;58605;48.700;8.760;2023-05-10T15:45:50;16.60;74.80
70947;DHT22;58605;48.700;8.760;2023-05-10T15:48:16;16.70;73.40
70947;DHT22;58605;48.700;8.760;2023-05-10T15:50:42;16.70;74.60
70947;DHT22;58605;48.700;8.760;2023-05-10T15:53:10;16.80;74.10
70947;DHT22;58605;48.700;8.760;2023-05-10T15:55:36;16.70;74.10
70947;DHT22;58605;48.700;8.760;2023-05-10T15:58:02;16.70;75.70
70947;DHT22;58605;48.700;8.760;2023-05-10T16:00:28;16.60;73.90